sensor_id;sensor_type;location;lat;lon;timestamp;temperature;humidity
19025;DHT22;9645;51.448;6.260;2023-05-07T00:01:47;14.70;99.90
19025;DHT22;9645;51.448;6.260;2023-05-07T00:04:14;14.70;99.90
19025;DHT22;9645;51.448;6.260;2023-05-07T00:06:43;14.70;99.90
19025;DHT22;9645;51.448;6.260;2023-05-07T00:09:10;14.70;99.90
19025;DHT22;9645;51.448;6.260;2023-05-07T00:11:38;14.70;99.90
19025;DHT22;9645;51.448;6.260;2023-05-07T00:14:05;14.70;99.90
19025;DHT22;9645;51.448;6.260;2023-05-07T00:16:32;14.70;99.90
19025;DHT22;9645;51.448;6.260;2023-05-07T00:19:00;14.70;99.90
19025;DHT22;9645;51.448;6.260;2023-05-07T00:21:27;14.70;99.90
19025;DHT22;9645;51.448;6.260;2023-05-07T00:23:56;14.70;99.90
19025;DHT22;9645;51.448;6.260;2023-05-07T00:26:22;14.60;99.90
19025;DHT22;9645;51.448;6.260;2023-05-07T00:28:49;14.60;99.90
19025;DHT22;9645;51.448;6.260;2023-05-07T00:31:16;14.60;99.90
19025;DHT22;9645;51.448;6.260;2023-05-07T00:33:43;14.60;99.90
19025;DHT22;9645;51.448;6.260;2023-05-07T00:36:10;14.60;99.90
19025;DHT22;9645;51.448;6.260;2023-05-07T00:38:37;14.60;99.90
19025;DHT22;9645;51.448;6.260;2023-05-07T00:41:06;14.50;99.90
19025;DHT22;9645;51.448;6.260;2023-05-07T00:43:33;14.50;99.90
19025;DHT22;9645;51.448;6.260;2023-05-07T00:46:00;14.50;99.90
19025;DHT22;9645;51.448;6.260;2023-05-07T00:48:27;14.50;99.90
19025;DHT22;9645;51.448;6.260;2023-05-07T00:50:54;14.50;99.90
19025;DHT22;9645;51.448;6.260;2023-05-07T00:53:21;14.50;99.90
19025;DHT22;9645;51.448;6.260;2023-05-07T00:55:48;14.50;99.90
19025;DHT22;9645;51.448;6.260;2023-05-07T00:58:17;14.60;99.90
19025;DHT22;9645;51.448;6.260;2023-05-07T01:00:44;14.60;99.90
19025;DHT22;9645;51.448;6.260;2023-05-07T01:03:13;14.60;99.90
19025;DHT22;9645;51.448;6.260;2023-05-07T01:05:41;14.50;99.90
19025;DHT22;9645;51.448;6.260;2023-05-07T01:08:09;14.50;99.90
19025;DHT22;9645;51.448;6.260;2023-05-07T01:10:36;14.50;99.90
19025;DHT22;9645;51.448;6.260;2023-05-07T01:13:03;14.50;99.90
19025;DHT22;9645;51.448;6.260;2023-05-07T01:15:31;14.40;99.90
19025;DHT22;9645;51.448;6.260;2023-05-07T01:17:58;14.50;99.90
19025;DHT22;9645;51.448;6.260;2023-05-07T01:20:25;14.50;99.90
19025;DHT22;9645;51.448;6.260;2023-05-07T01:22:54;14.50;99.90
19025;DHT22;9645;51.448;6.260;2023-05-07T01:25:22;14.50;99.90
19025;DHT22;9645;51.448;6.260;2023-05-07T01:27:49;14.50;99.90
19025;DHT22;9645;51.448;6.260;2023-05-07T01:30:17;14.50;99.90
19025;DHT22;9645;51.448;6.260;2023-05-07T01:32:50;14.50;99.90
19025;DHT22;9645;51.448;6.260;2023-05-07T01:35:20;14.50;99.90
19025;DHT22;9645;51.448;6.260;2023-05-07T01:37:48;14.50;99.90
19025;DHT22;9645;51.448;6.260;2023-05-07T01:40:17;14.50;99.90
19025;DHT22;9645;51.448;6.260;2023-05-07T01:42:45;14.50;99.90
19025;DHT22;9645;51.448;6.260;2023-05-07T01:45:13;14.50;99.90
19025;DHT22;9645;51.448;6.260;2023-05-07T01:47:41;14.50;99.90
19025;DHT22;9645;51.448;6.260;2023-05-07T01:50:09;14.50;99.90
19025;DHT22;9645;51.448;6.260;2023-05-07T01:52:37;14.50;99.90
19025;DHT22;9645;51.448;6.260;2023-05-07T01:55:05;14.40;99.90
19025;DHT22;9645;51.448;6.260;2023-05-07T01:57:34;14.40;99.90
19025;DHT22;9645;51.448;6.260;2023-05-07T02:00:01;14.40;99.90
19025;DHT22;9645;51.448;6.260;2023-05-07T02:02:31;14.40;99.90
19025;DHT22;9645;51.448;6.260;2023-05-07T02:04:59;14.40;99.90
19025;DHT22;9645;51.448;6.260;2023-05-07T02:07:26;14.30;99.90
19025;DHT22;9645;51.448;6.260;2023-05-07T02:09:53;14.30;99.90
19025;DHT22;9645;51.448;6.260;2023-05-07T02:12:21;14.30;99.90
19025;DHT22;9645;51.448;6.260;2023-05-07T02:14:49;14.30;99.90
19025;DHT22;9645;51.448;6.260;2023-05-07T02:17:16;14.30;99.90
19025;DHT22;9645;51.448;6.260;2023-05-07T02:19:43;14.30;99.90
19025;DHT22;9645;51.448;6.260;2023-05-07T02:22:10;14.20;99.90
19025;DHT22;9645;51.448;6.260;2023-05-07T02:24:37;14.20;99.90
19025;DHT22;9645;51.448;6.260;2023-05-07T02:27:04;14.20;99.90
19025;DHT22;9645;51.448;6.260;2023-05-07T02:29:31;14.10;99.90
19025;DHT22;9645;51.448;6.260;2023-05-07T02:31:59;14.10;99.90
19025;DHT22;9645;51.448;6.260;2023-05-07T02:34:26;14.00;99.90
19025;DHT22;9645;51.448;6.260;2023-05-07T02:36:53;14.00;99.90
19025;DHT22;9645;51.448;6.260;2023-05-07T02:39:21;14.00;99.90
19025;DHT22;9645;51.448;6.260;2023-05-07T02:41:48;13.90;99.90
19025;DHT22;9645;51.448;6.260;2023-05-07T02:44:15;13.90;99.90
19025;DHT22;9645;51.448;6.260;2023-05-07T02:46:42;13.80;99.90
19025;DHT22;9645;51.448;6.260;2023-05-07T02:49:10;13.80;99.90
19025;DHT22;9645;51.448;6.260;2023-05-07T02:51:37;13.80;99.90
19025;DHT22;9645;51.448;6.260;2023-05-07T02:54:04;13.80;99.90
19025;DHT22;9645;51.448;6.260;2023-05-07T02:56:31;13.70;99.90
19025;DHT22;9645;51.448;6.260;2023-05-07T02:58:58;13.80;99.90
19025;DHT22;9645;51.448;6.260;2023-05-07T03:01:25;13.70;99.90
19025;DHT22;9645;51.448;6.260;2023-05-07T03:03:52;13.80;99.90
19025;DHT22;9645;51.448;6.260;2023-05-07T03:06:20;13.80;99.90
19025;DHT22;9645;51.448;6.260;2023-05-07T03:08:47;13.80;99.90
19025;DHT22;9645;51.448;6.260;2023-05-07T03:11:14;13.80;99.90
19025;DHT22;9645;51.448;6.260;2023-05-07T03:13:41;13.80;99.90
19025;DHT22;9645;51.448;6.260;2023-05-07T03:16:08;13.80;99.90
19025;DHT22;9645;51.448;6.260;2023-05-07T03:18:35;13.80;99.90
19025;DHT22;9645;51.448;6.260;2023-05-07T03:21:02;13.90;99.90
19025;DHT22;9645;51.448;6.260;2023-05-07T03:23:30;13.90;99.90
19025;DHT22;9645;51.448;6.260;2023-05-07T03:25:57;13.90;99.90
19025;DHT22;9645;51.448;6.260;2023-05-07T03:28:24;13.90;99.90
19025;DHT22;9645;51.448;6.260;2023-05-07T03:30:51;13.90;99.90
19025;DHT22;9645;51.448;6.260;2023-05-07T03:33:18;13.80;99.90
19025;DHT22;9645;51.448;6.260;2023-05-07T03:35:45;13.80;99.90
19025;DHT22;9645;51.448;6.260;2023-05-07T03:38:13;13.80;99.90
19025;DHT22;9645;51.448;6.260;2023-05-07T03:40:42;13.80;99.90
19025;DHT22;9645;51.448;6.260;2023-05-07T03:43:09;13.80;99.90
19025;DHT22;9645;51.448;6.260;2023-05-07T03:45:36;13.80;99.90
19025;DHT22;9645;51.448;6.260;2023-05-07T03:48:04;13.80;99.90
19025;DHT22;9645;51.448;6.260;2023-05-07T03:50:31;13.80;99.90
19025;DHT22;9645;51.448;6.260;2023-05-07T03:52:58;13.80;99.90
19025;DHT22;9645;51.448;6.260;2023-05-07T03:55:25;13.70;99.90
19025;DHT22;9645;51.448;6.260;2023-05-07T03:57:53;13.80;99.90
19025;DHT22;9645;51.448;6.260;2023-05-07T04:00:22;13.70;99.90
19025;DHT22;9645;51.448;6.260;2023-05-07T04:02:49;13.70;99.90
19025;DHT22;9645;51.448;6.260;2023-05-07T04:05:16;13.70;99.90
19025;DHT22;9645;51.448;6.260;2023-05-07T04:07:43;13.70;99.90
19025;DHT22;9645;51.448;6.260;2023-05-07T04:10:10;13.70;99.90
19025;DHT22;9645;51.448;6.260;2023-05-07T04:12:37;13.70;99.90
19025;DHT22;9645;51.448;6.260;2023-05-07T04:15:06;13.70;99.90
19025;DHT22;9645;51.448;6.260;2023-05-07T04:17:33;13.70;99.90
19025;DHT22;9645;51.448;6.260;2023-05-07T04:20:00;13.70;99.90
19025;DHT22;9645;51.448;6.260;2023-05-07T04:22:27;13.80;99.90
19025;DHT22;9645;51.448;6.260;2023-05-07T04:24:54;13.80;99.90
19025;DHT22;9645;51.448;6.260;2023-05-07T04:27:21;13.80;99.90
19025;DHT22;9645;51.448;6.260;2023-05-07T04:29:48;13.80;99.90
19025;DHT22;9645;51.448;6.260;2023-05-07T04:32:17;13.80;99.90
19025;DHT22;9645;51.448;6.260;2023-05-07T04:34:44;13.80;99.90
19025;DHT22;9645;51.448;6.260;2023-05-07T04:37:11;13.90;99.90
19025;DHT22;9645;51.448;6.260;2023-05-07T04:39:38;13.90;99.90
19025;DHT22;9645;51.448;6.260;2023-05-07T04:42:04;13.90;99.90
19025;DHT22;9645;51.448;6.260;2023-05-07T04:44:33;13.90;99.90
19025;DHT22;9645;51.448;6.260;2023-05-07T04:47:00;13.90;99.90
19025;DHT22;9645;51.448;6.260;2023-05-07T04:49:28;13.90;99.90
19025;DHT22;9645;51.448;6.260;2023-05-07T04:51:55;14.00;99.90
19025;DHT22;9645;51.448;6.260;2023-05-07T04:54:22;14.00;99.90
19025;DHT22;9645;51.448;6.260;2023-05-07T04:56:49;14.10;99.90
19025;DHT22;9645;51.448;6.260;2023-05-07T04:59:16;14.10;99.90
19025;DHT22;9645;51.448;6.260;2023-05-07T05:01:43;14.20;99.90
19025;DHT22;9645;51.448;6.260;2023-05-07T05:04:10;14.40;99.90
19025;DHT22;9645;51.448;6.260;2023-05-07T05:06:38;14.40;99.90
19025;DHT22;9645;51.448;6.260;2023-05-07T05:09:05;14.60;99.90
19025;DHT22;9645;51.448;6.260;2023-05-07T05:11:32;14.60;99.90
19025;DHT22;9645;51.448;6.260;2023-05-07T05:13:59;14.80;99.90
19025;DHT22;9645;51.448;6.260;2023-05-07T05:16:27;14.90;99.90
19025;DHT22;9645;51.448;6.260;2023-05-07T05:18:54;15.00;99.90
19025;DHT22;9645;51.448;6.260;2023-05-07T05:21:21;15.10;99.90
19025;DHT22;9645;51.448;6.260;2023-05-07T05:23:50;15.10;99.90
19025;DHT22;9645;51.448;6.260;2023-05-07T05:26:17;15.30;99.90
19025;DHT22;9645;51.448;6.260;2023-05-07T05:28:44;15.30;99.90
19025;DHT22;9645;51.448;6.260;2023-05-07T05:31:11;15.50;99.90
19025;DHT22;9645;51.448;6.260;2023-05-07T05:33:39;15.60;99.90
19025;DHT22;9645;51.448;6.260;2023-05-07T05:36:09;15.80;99.90
19025;DHT22;9645;51.448;6.260;2023-05-07T05:38:36;16.10;99.90
19025;DHT22;9645;51.448;6.260;2023-05-07T05:41:05;16.00;99.90
19025;DHT22;9645;51.448;6.260;2023-05-07T05:43:32;16.20;99.90
19025;DHT22;9645;51.448;6.260;2023-05-07T05:45:59;16.30;99.90
19025;DHT22;9645;51.448;6.260;2023-05-07T05:48:26;16.40;99.90
19025;DHT22;9645;51.448;6.260;2023-05-07T05:50:53;16.40;99.90
19025;DHT22;9645;51.448;6.260;2023-05-07T05:53:20;16.50;99.90
19025;DHT22;9645;51.448;6.260;2023-05-07T05:55:47;16.50;99.90
19025;DHT22;9645;51.448;6.260;2023-05-07T05:58:15;16.50;99.90
19025;DHT22;9645;51.448;6.260;2023-05-07T06:00:43;16.50;99.90
19025;DHT22;9645;51.448;6.260;2023-05-07T06:03:10;16.60;99.90
19025;DHT22;9645;51.448;6.260;2023-05-07T06:05:37;16.50;99.90
19025;DHT22;9645;51.448;6.260;2023-05-07T06:08:04;16.50;99.90
19025;DHT22;9645;51.448;6.260;2023-05-07T06:10:31;16.50;99.90
19025;DHT22;9645;51.448;6.260;2023-05-07T06:12:58;16.50;99.90
19025;DHT22;9645;51.448;6.260;2023-05-07T06:15:27;16.50;99.90
19025;DHT22;9645;51.448;6.260;2023-05-07T06:17:54;16.50;99.90
19025;DHT22;9645;51.448;6.260;2023-05-07T06:20:25;16.60;99.90
19025;DHT22;9645;51.448;6.260;2023-05-07T06:22:55;16.70;99.90
19025;DHT22;9645;51.448;6.260;2023-05-07T06:25:22;16.70;99.90
19025;DHT22;9645;51.448;6.260;2023-05-07T06:27:49;16.60;99.90
19025;DHT22;9645;51.448;6.260;2023-05-07T06:30:16;16.60;99.90
19025;DHT22;9645;51.448;6.260;2023-05-07T06:32:44;16.60;99.90
19025;DHT22;9645;51.448;6.260;2023-05-07T06:35:11;16.50;99.90
19025;DHT22;9645;51.448;6.260;2023-05-07T06:37:38;16.50;99.90
19025;DHT22;9645;51.448;6.260;2023-05-07T06:40:08;16.50;99.90
19025;DHT22;9645;51.448;6.260;2023-05-07T06:42:36;16.50;99.90
19025;DHT22;9645;51.448;6.260;2023-05-07T06:45:04;16.60;99.90
19025;DHT22;9645;51.448;6.260;2023-05-07T06:47:31;16.70;99.90
19025;DHT22;9645;51.448;6.260;2023-05-07T06:49:59;16.90;99.90
19025;DHT22;9645;51.448;6.260;2023-05-07T06:52:26;17.20;99.90
19025;DHT22;9645;51.448;6.260;2023-05-07T06:54:53;17.20;99.90
19025;DHT22;9645;51.448;6.260;2023-05-07T06:57:20;17.40;99.90
19025;DHT22;9645;51.448;6.260;2023-05-07T06:59:47;17.60;99.90
19025;DHT22;9645;51.448;6.260;2023-05-07T07:02:14;17.90;99.90
19025;DHT22;9645;51.448;6.260;2023-05-07T07:04:41;18.20;99.90
19025;DHT22;9645;51.448;6.260;2023-05-07T07:07:09;18.50;99.90
19025;DHT22;9645;51.448;6.260;2023-05-07T07:09:36;18.70;99.90
19025;DHT22;9645;51.448;6.260;2023-05-07T07:12:04;18.80;99.90
19025;DHT22;9645;51.448;6.260;2023-05-07T07:14:31;18.90;99.90
19025;DHT22;9645;51.448;6.260;2023-05-07T07:16:58;18.90;99.90
19025;DHT22;9645;51.448;6.260;2023-05-07T07:19:26;18.90;99.90
19025;DHT22;9645;51.448;6.260;2023-05-07T07:21:53;18.90;99.90
19025;DHT22;9645;51.448;6.260;2023-05-07T07:24:21;19.00;99.90
19025;DHT22;9645;51.448;6.260;2023-05-07T07:26:48;19.30;99.90
19025;DHT22;9645;51.448;6.260;2023-05-07T07:29:15;19.50;99.90
19025;DHT22;9645;51.448;6.260;2023-05-07T07:31:44;19.60;99.90
19025;DHT22;9645;51.448;6.260;2023-05-07T07:34:11;19.60;1.00
19025;DHT22;9645;51.448;6.260;2023-05-07T07:36:37;19.60;1.00
19025;DHT22;9645;51.448;6.260;2023-05-07T07:39:04;19.70;1.00
19025;DHT22;9645;51.448;6.260;2023-05-07T07:41:33;19.70;99.90
19025;DHT22;9645;51.448;6.260;2023-05-07T07:44:00;19.80;1.00
19025;DHT22;9645;51.448;6.260;2023-05-07T07:46:29;19.90;1.00
19025;DHT22;9645;51.448;6.260;2023-05-07T07:48:56;19.70;1.00
19025;DHT22;9645;51.448;6.260;2023-05-07T07:51:24;19.80;1.00
19025;DHT22;9645;51.448;6.260;2023-05-07T07:53:52;19.90;1.00
19025;DHT22;9645;51.448;6.260;2023-05-07T07:56:19;19.30;1.00
19025;DHT22;9645;51.448;6.260;2023-05-07T07:58:47;19.70;1.00
19025;DHT22;9645;51.448;6.260;2023-05-07T08:01:14;19.80;1.00
19025;DHT22;9645;51.448;6.260;2023-05-07T08:03:42;19.80;1.00
19025;DHT22;9645;51.448;6.260;2023-05-07T08:06:09;19.70;1.00
19025;DHT22;9645;51.448;6.260;2023-05-07T08:08:36;19.60;1.00
19025;DHT22;9645;51.448;6.260;2023-05-07T08:11:04;19.70;1.00
19025;DHT22;9645;51.448;6.260;2023-05-07T08:13:31;19.70;1.00
19025;DHT22;9645;51.448;6.260;2023-05-07T08:15:59;19.70;1.00
19025;DHT22;9645;51.448;6.260;2023-05-07T08:18:26;19.90;1.00
19025;DHT22;9645;51.448;6.260;2023-05-07T08:20:54;20.20;1.00
19025;DHT22;9645;51.448;6.260;2023-05-07T08:23:21;20.50;99.90
19025;DHT22;9645;51.448;6.260;2023-05-07T08:25:48;20.60;1.00
19025;DHT22;9645;51.448;6.260;2023-05-07T08:28:16;20.70;99.90
19025;DHT22;9645;51.448;6.260;2023-05-07T08:30:44;20.90;1.00
19025;DHT22;9645;51.448;6.260;2023-05-07T08:33:13;21.10;1.00
19025;DHT22;9645;51.448;6.260;2023-05-07T08:35:40;21.50;99.90
19025;DHT22;9645;51.448;6.260;2023-05-07T08:38:07;21.80;1.00
19025;DHT22;9645;51.448;6.260;2023-05-07T08:40:37;22.10;99.90
19025;DHT22;9645;51.448;6.260;2023-05-07T08:43:06;22.50;1.00
19025;DHT22;9645;51.448;6.260;2023-05-07T08:45:34;22.70;1.00
19025;DHT22;9645;51.448;6.260;2023-05-07T08:48:02;23.10;1.00
19025;DHT22;9645;51.448;6.260;2023-05-07T08:50:32;23.20;1.00
19025;DHT22;9645;51.448;6.260;2023-05-07T08:53:03;23.40;99.90
19025;DHT22;9645;51.448;6.260;2023-05-07T08:55:30;23.80;1.00
19025;DHT22;9645;51.448;6.260;2023-05-07T08:57:57;24.20;99.90
19025;DHT22;9645;51.448;6.260;2023-05-07T09:00:24;24.30;1.00
19025;DHT22;9645;51.448;6.260;2023-05-07T09:02:52;24.10;1.00
19025;DHT22;9645;51.448;6.260;2023-05-07T09:05:20;23.90;1.00
19025;DHT22;9645;51.448;6.260;2023-05-07T09:07:48;23.70;10.80
19025;DHT22;9645;51.448;6.260;2023-05-07T09:10:16;23.40;1.00
19025;DHT22;9645;51.448;6.260;2023-05-07T09:12:42;23.30;1.00
19025;DHT22;9645;51.448;6.260;2023-05-07T09:15:10;23.20;99.90
19025;DHT22;9645;51.448;6.260;2023-05-07T09:17:37;23.10;42.50
19025;DHT22;9645;51.448;6.260;2023-05-07T09:20:07;21.90;99.90
19025;DHT22;9645;51.448;6.260;2023-05-07T09:22:36;23.50;99.90
19025;DHT22;9645;51.448;6.260;2023-05-07T09:25:06;24.70;1.00
19025;DHT22;9645;51.448;6.260;2023-05-07T09:39:56;25.70;1.00
19025;DHT22;9645;51.448;6.260;2023-05-07T09:42:25;25.80;1.00
19025;DHT22;9645;51.448;6.260;2023-05-07T09:44:52;25.80;1.00
19025;DHT22;9645;51.448;6.260;2023-05-07T09:47:20;25.70;99.90
19025;DHT22;9645;51.448;6.260;2023-05-07T09:49:50;25.70;1.00
19025;DHT22;9645;51.448;6.260;2023-05-07T09:52:21;25.80;99.90
19025;DHT22;9645;51.448;6.260;2023-05-07T09:54:50;25.90;1.00
19025;DHT22;9645;51.448;6.260;2023-05-07T09:57:19;25.60;1.00
19025;DHT22;9645;51.448;6.260;2023-05-07T09:59:49;25.30;1.00
19025;DHT22;9645;51.448;6.260;2023-05-07T10:02:19;25.50;99.90
19025;DHT22;9645;51.448;6.260;2023-05-07T10:04:48;25.80;1.00
19025;DHT22;9645;51.448;6.260;2023-05-07T10:07:16;26.10;1.00
19025;DHT22;9645;51.448;6.260;2023-05-07T10:09:44;26.40;1.00
19025;DHT22;9645;51.448;6.260;2023-05-07T10:12:12;26.50;1.00
19025;DHT22;9645;51.448;6.260;2023-05-07T10:14:39;26.40;1.00
19025;DHT22;9645;51.448;6.260;2023-05-07T10:17:09;26.20;1.00
19025;DHT22;9645;51.448;6.260;2023-05-07T10:19:38;26.20;4.00
19025;DHT22;9645;51.448;6.260;2023-05-07T10:22:06;26.30;1.00
19025;DHT22;9645;51.448;6.260;2023-05-07T10:24:36;26.90;1.00
19025;DHT22;9645;51.448;6.260;2023-05-07T10:27:07;27.30;1.00
19025;DHT22;9645;51.448;6.260;2023-05-07T10:29:42;27.50;1.00
19025;DHT22;9645;51.448;6.260;2023-05-07T10:32:30;27.40;99.90
19025;DHT22;9645;51.448;6.260;2023-05-07T10:35:01;26.90;99.90
19025;DHT22;9645;51.448;6.260;2023-05-07T10:37:29;26.90;99.90
19025;DHT22;9645;51.448;6.260;2023-05-07T10:39:56;26.80;99.90
19025;DHT22;9645;51.448;6.260;2023-05-07T10:42:24;26.70;1.00
19025;DHT22;9645;51.448;6.260;2023-05-07T10:44:51;26.60;99.90
19025;DHT22;9645;51.448;6.260;2023-05-07T10:47:19;26.30;99.90
19025;DHT22;9645;51.448;6.260;2023-05-07T10:50:20;26.30;99.90
19025;DHT22;9645;51.448;6.260;2023-05-07T10:53:20;26.60;99.90
19025;DHT22;9645;51.448;6.260;2023-05-07T10:55:49;26.40;99.90
19025;DHT22;9645;51.448;6.260;2023-05-07T10:58:23;26.50;99.90
19025;DHT22;9645;51.448;6.260;2023-05-07T11:00:56;26.70;99.90
19025;DHT22;9645;51.448;6.260;2023-05-07T11:03:25;27.00;99.90
19025;DHT22;9645;51.448;6.260;2023-05-07T11:06:10;27.00;99.90
19025;DHT22;9645;51.448;6.260;2023-05-07T11:08:53;27.40;99.90
19025;DHT22;9645;51.448;6.260;2023-05-07T11:11:44;26.90;99.90
19025;DHT22;9645;51.448;6.260;2023-05-07T11:14:11;26.80;99.90
19025;DHT22;9645;51.448;6.260;2023-05-07T11:16:41;26.80;99.90
19025;DHT22;9645;51.448;6.260;2023-05-07T11:19:09;26.70;99.90
19025;DHT22;9645;51.448;6.260;2023-05-07T11:21:37;26.60;99.90
19025;DHT22;9645;51.448;6.260;2023-05-07T11:24:06;26.80;99.90
19025;DHT22;9645;51.448;6.260;2023-05-07T11:26:47;26.90;99.90
19025;DHT22;9645;51.448;6.260;2023-05-07T11:29:16;26.80;99.90
19025;DHT22;9645;51.448;6.260;2023-05-07T11:31:44;26.70;99.90
19025;DHT22;9645;51.448;6.260;2023-05-07T11:34:21;26.80;99.90
19025;DHT22;9645;51.448;6.260;2023-05-07T11:36:48;26.70;99.90
19025;DHT22;9645;51.448;6.260;2023-05-07T11:39:26;26.70;99.90
19025;DHT22;9645;51.448;6.260;2023-05-07T11:41:54;26.80;99.90
19025;DHT22;9645;51.448;6.260;2023-05-07T11:44:21;26.70;99.90
19025;DHT22;9645;51.448;6.260;2023-05-07T11:46:49;26.70;99.90
19025;DHT22;9645;51.448;6.260;2023-05-07T11:49:17;26.30;99.90
19025;DHT22;9645;51.448;6.260;2023-05-07T11:51:45;26.20;99.90
19025;DHT22;9645;51.448;6.260;2023-05-07T11:54:15;26.10;99.90
19025;DHT22;9645;51.448;6.260;2023-05-07T11:56:44;25.90;99.90
19025;DHT22;9645;51.448;6.260;2023-05-07T11:59:18;25.80;99.90
19025;DHT22;9645;51.448;6.260;2023-05-07T12:01:46;25.70;99.90
19025;DHT22;9645;51.448;6.260;2023-05-07T12:04:13;25.50;99.90
19025;DHT22;9645;51.448;6.260;2023-05-07T12:06:42;25.30;99.90
19025;DHT22;9645;51.448;6.260;2023-05-07T12:09:09;25.40;99.90
19025;DHT22;9645;51.448;6.260;2023-05-07T12:11:37;25.20;99.90
19025;DHT22;9645;51.448;6.260;2023-05-07T12:14:05;25.10;99.90
19025;DHT22;9645;51.448;6.260;2023-05-07T12:16:32;25.00;99.90
19025;DHT22;9645;51.448;6.260;2023-05-07T12:19:00;25.10;99.90
19025;DHT22;9645;51.448;6.260;2023-05-07T12:21:27;25.30;99.90
19025;DHT22;9645;51.448;6.260;2023-05-07T12:23:56;25.20;99.90
19025;DHT22;9645;51.448;6.260;2023-05-07T12:26:23;24.90;99.90
19025;DHT22;9645;51.448;6.260;2023-05-07T12:28:50;24.70;1.00
19025;DHT22;9645;51.448;6.260;2023-05-07T12:31:17;24.80;99.90
19025;DHT22;9645;51.448;6.260;2023-05-07T12:33:45;24.80;99.90
19025;DHT22;9645;51.448;6.260;2023-05-07T12:36:12;24.10;99.90
19025;DHT22;9645;51.448;6.260;2023-05-07T12:38:40;24.90;99.90
19025;DHT22;9645;51.448;6.260;2023-05-07T12:41:10;24.80;99.90
19025;DHT22;9645;51.448;6.260;2023-05-07T12:43:38;24.90;99.90
19025;DHT22;9645;51.448;6.260;2023-05-07T12:46:06;24.60;99.90
19025;DHT22;9645;51.448;6.260;2023-05-07T12:48:33;24.70;1.00
19025;DHT22;9645;51.448;6.260;2023-05-07T12:51:00;24.70;99.90
19025;DHT22;9645;51.448;6.260;2023-05-07T12:53:29;24.70;99.90
19025;DHT22;9645;51.448;6.260;2023-05-07T12:55:58;24.60;99.90
19025;DHT22;9645;51.448;6.260;2023-05-07T12:58:29;24.50;99.90
19025;DHT22;9645;51.448;6.260;2023-05-07T13:00:58;24.40;1.00
19025;DHT22;9645;51.448;6.260;2023-05-07T13:03:27;24.20;1.00
19025;DHT22;9645;51.448;6.260;2023-05-07T13:05:55;24.00;99.90
19025;DHT22;9645;51.448;6.260;2023-05-07T13:08:26;24.00;99.90
19025;DHT22;9645;51.448;6.260;2023-05-07T13:10:53;23.90;1.00
19025;DHT22;9645;51.448;6.260;2023-05-07T13:13:20;23.80;99.90
19025;DHT22;9645;51.448;6.260;2023-05-07T13:15:49;23.70;99.90
19025;DHT22;9645;51.448;6.260;2023-05-07T13:18:16;23.70;1.00
19025;DHT22;9645;51.448;6.260;2023-05-07T13:20:43;23.70;99.90
19025;DHT22;9645;51.448;6.260;2023-05-07T13:23:10;23.70;99.90
19025;DHT22;9645;51.448;6.260;2023-05-07T13:25:37;23.60;1.00
19025;DHT22;9645;51.448;6.260;2023-05-07T13:28:04;23.60;1.00
19025;DHT22;9645;51.448;6.260;2023-05-07T13:30:31;23.60;99.90
19025;DHT22;9645;51.448;6.260;2023-05-07T13:32:59;23.60;1.00
19025;DHT22;9645;51.448;6.260;2023-05-07T13:35:26;23.50;1.00
19025;DHT22;9645;51.448;6.260;2023-05-07T13:37:53;23.40;1.00
19025;DHT22;9645;51.448;6.260;2023-05-07T13:40:21;23.40;1.00
19025;DHT22;9645;51.448;6.260;2023-05-07T13:42:48;23.30;99.90
19025;DHT22;9645;51.448;6.260;2023-05-07T13:45:16;23.40;99.90
19025;DHT22;9645;51.448;6.260;2023-05-07T13:47:43;23.50;1.00
19025;DHT22;9645;51.448;6.260;2023-05-07T13:50:12;23.40;99.90
19025;DHT22;9645;51.448;6.260;2023-05-07T13:52:41;23.30;99.90
19025;DHT22;9645;51.448;6.260;2023-05-07T13:55:11;23.30;99.90
19025;DHT22;9645;51.448;6.260;2023-05-07T13:57:38;23.20;1.00
19025;DHT22;9645;51.448;6.260;2023-05-07T14:00:07;23.20;99.90
19025;DHT22;9645;51.448;6.260;2023-05-07T14:02:34;23.30;99.90
19025;DHT22;9645;51.448;6.260;2023-05-07T14:05:02;23.30;99.90
19025;DHT22;9645;51.448;6.260;2023-05-07T14:07:30;23.30;99.90
19025;DHT22;9645;51.448;6.260;2023-05-07T14:09:57;23.20;99.90
19025;DHT22;9645;51.448;6.260;2023-05-07T14:12:24;23.20;1.00
19025;DHT22;9645;51.448;6.260;2023-05-07T14:14:52;23.10;1.00
19025;DHT22;9645;51.448;6.260;2023-05-07T14:17:19;23.10;1.00
19025;DHT22;9645;51.448;6.260;2023-05-07T14:19:48;23.20;5.10
19025;DHT22;9645;51.448;6.260;2023-05-07T14:22:15;23.20;54.60
19025;DHT22;9645;51.448;6.260;2023-05-07T14:24:43;23.20;99.90
19025;DHT22;9645;51.448;6.260;2023-05-07T14:27:10;23.20;99.90
19025;DHT22;9645;51.448;6.260;2023-05-07T14:29:37;23.00;1.00
19025;DHT22;9645;51.448;6.260;2023-05-07T14:32:05;23.00;99.90
19025;DHT22;9645;51.448;6.260;2023-05-07T14:34:32;22.70;97.70
19025;DHT22;9645;51.448;6.260;2023-05-07T14:37:00;22.30;1.00
19025;DHT22;9645;51.448;6.260;2023-05-07T14:39:27;22.00;99.90
19025;DHT22;9645;51.448;6.260;2023-05-07T14:41:55;21.70;99.90
19025;DHT22;9645;51.448;6.260;2023-05-07T14:44:23;21.50;99.90
19025;DHT22;9645;51.448;6.260;2023-05-07T14:46:50;21.60;99.90
19025;DHT22;9645;51.448;6.260;2023-05-07T14:49:17;21.40;99.90
19025;DHT22;9645;51.448;6.260;2023-05-07T14:51:44;21.40;99.90
19025;DHT22;9645;51.448;6.260;2023-05-07T14:54:12;21.20;99.90
19025;DHT22;9645;51.448;6.260;2023-05-07T14:56:40;21.10;99.90
19025;DHT22;9645;51.448;6.260;2023-05-07T14:59:09;21.20;99.90
19025;DHT22;9645;51.448;6.260;2023-05-07T15:01:36;21.20;99.90
19025;DHT22;9645;51.448;6.260;2023-05-07T15:04:03;21.40;99.90
19025;DHT22;9645;51.448;6.260;2023-05-07T15:06:30;21.50;99.90
19025;DHT22;9645;51.448;6.260;2023-05-07T15:08:57;21.50;99.90
19025;DHT22;9645;51.448;6.260;2023-05-07T15:11:25;21.80;99.90
19025;DHT22;9645;51.448;6.260;2023-05-07T15:13:52;22.00;99.90
19025;DHT22;9645;51.448;6.260;2023-05-07T15:16:20;22.00;99.90
19025;DHT22;9645;51.448;6.260;2023-05-07T15:18:48;22.20;99.90
19025;DHT22;9645;51.448;6.260;2023-05-07T15:21:15;22.30;99.90
19025;DHT22;9645;51.448;6.260;2023-05-07T15:23:42;22.30;1.00
19025;DHT22;9645;51.448;6.260;2023-05-07T15:26:10;22.20;96.60
19025;DHT22;9645;51.448;6.260;2023-05-07T15:28:38;22.30;99.90
19025;DHT22;9645;51.448;6.260;2023-05-07T15:31:05;22.20;99.90
19025;DHT22;9645;51.448;6.260;2023-05-07T15:33:34;22.40;99.90
19025;DHT22;9645;51.448;6.260;2023-05-07T15:36:01;22.60;1.00
19025;DHT22;9645;51.448;6.260;2023-05-07T15:38:28;22.60;99.90
19025;DHT22;9645;51.448;6.260;2023-05-07T15:40:55;22.80;1.00
19025;DHT22;9645;51.448;6.260;2023-05-07T15:43:22;22.70;1.00
19025;DHT22;9645;51.448;6.260;2023-05-07T15:45:50;22.70;1.00
19025;DHT22;9645;51.448;6.260;2023-05-07T15:48:18;22.70;31.20
19025;DHT22;9645;51.448;6.260;2023-05-07T15:50:47;22.50;1.00
19025;DHT22;9645;51.448;6.260;2023-05-07T15:53:14;22.60;99.90
19025;DHT22;9645;51.448;6.260;2023-05-07T15:55:42;22.80;1.00
19025;DHT22;9645;51.448;6.260;2023-05-07T15:58:09;22.90;1.00
19025;DHT22;9645;51.448;6.260;2023-05-07T16:00:37;22.70;1.00
19025;DHT22;9645;51.448;6.260;2023-05-07T16:03:06;22.70;1.00
19025;DHT22;9645;51.448;6.260;2023-05-07T16:05:33;22.70;1.00
19025;DHT22;9645;51.448;6.260;2023-05-07T16:08:01;22.90;99.90